sensor_id;sensor_type;location;lat;lon;timestamp;pressure;altitude;pressure_sealevel;temperature;humidity
16194;BME280;8204;53.582;10.080;2023-04-01T07:37:01;98477.31;;;10.13;100.00
16194;BME280;8204;53.582;10.080;2023-04-01T07:39:43;98509.72;;;10.12;100.00
16194;BME280;8204;53.582;10.080;2023-04-01T07:42:23;98513.72;;;10.15;100.00
16194;BME280;8204;53.582;10.080;2023-04-01T07:45:05;98525.22;;;10.14;100.00
16194;BME280;8204;53.582;10.080;2023-04-01T07:47:49;98549.97;;;10.11;100.00
16194;BME280;8204;53.582;10.080;2023-04-01T07:50:26;98554.41;;;10.11;100.00
16194;BME280;8204;53.582;10.080;2023-04-01T07:53:09;98536.88;;;10.11;100.00
16194;BME280;8204;53.582;10.080;2023-04-01T07:55:44;98546.34;;;10.12;100.00
16194;BME280;8204;53.582;10.080;2023-04-01T07:58:23;98552.59;;;10.11;100.00
16194;BME280;8204;53.582;10.080;2023-04-01T08:01:00;98579.41;;;10.07;100.00
16194;BME280;8204;53.582;10.080;2023-04-01T08:03:38;98543.72;;;10.12;100.00
16194;BME280;8204;53.582;10.080;2023-04-01T08:06:18;98566.72;;;10.10;100.00
16194;BME280;8204;53.582;10.080;2023-04-01T08:08:59;98581.19;;;10.06;100.00
16194;BME280;8204;53.582;10.080;2023-04-01T08:11:50;98575.75;;;10.08;100.00
16194;BME280;8204;53.582;10.080;2023-04-01T08:14:31;98606.19;;;10.02;100.00
16194;BME280;8204;53.582;10.080;2023-04-01T08:17:03;98601.53;;;10.04;100.00
16194;BME280;8204;53.582;10.080;2023-04-01T08:19:45;98617.25;;;9.98;100.00
16194;BME280;8204;53.582;10.080;2023-04-01T08:22:23;98653.06;;;9.91;100.00
16194;BME280;8204;53.582;10.080;2023-04-01T08:24:59;98652.28;;;9.90;100.00
16194;BME280;8204;53.582;10.080;2023-04-01T08:27:36;98634.13;;;9.89;100.00
16194;BME280;8204;53.582;10.080;2023-04-01T08:30:16;98651.84;;;9.93;100.00
16194;BME280;8204;53.582;10.080;2023-04-01T08:32:49;98681.03;;;9.90;100.00
16194;BME280;8204;53.582;10.080;2023-04-01T08:35:26;98677.81;;;9.88;100.00
16194;BME280;8204;53.582;10.080;2023-04-01T08:38:01;98661.91;;;9.96;100.00
16194;BME280;8204;53.582;10.080;2023-04-01T08:40:58;98665.75;;;10.00;100.00
16194;BME280;8204;53.582;10.080;2023-04-01T08:43:42;98681.88;;;9.97;100.00
16194;BME280;8204;53.582;10.080;2023-04-01T08:46:29;98723.28;;;9.94;100.00
16194;BME280;8204;53.582;10.080;2023-04-01T08:49:18;98727.72;;;9.93;100.00
16194;BME280;8204;53.582;10.080;2023-04-01T08:52:25;98747.06;;;9.99;100.00
16194;BME280;8204;53.582;10.080;2023-04-01T08:55:25;98755.31;;;10.02;100.00
16194;BME280;8204;53.582;10.080;2023-04-01T08:58:16;98757.94;;;10.02;100.00
16194;BME280;8204;53.582;10.080;2023-04-01T09:00:50;98750.47;;;10.06;100.00
16194;BME280;8204;53.582;10.080;2023-04-01T09:03:37;98761.53;;;10.01;100.00
16194;BME280;8204;53.582;10.080;2023-04-01T09:06:24;98750.88;;;10.09;100.00
16194;BME280;8204;53.582;10.080;2023-04-01T09:12:25;98792.13;;;10.14;100.00
16194;BME280;8204;53.582;10.080;2023-04-01T09:15:16;98804.59;;;10.18;100.00
16194;BME280;8204;53.582;10.080;2023-04-01T09:18:13;98784.44;;;10.25;100.00
16194;BME280;8204;53.582;10.080;2023-04-01T09:21:03;98794.09;;;10.31;100.00
16194;BME280;8204;53.582;10.080;2023-04-01T09:23:53;98786.66;;;10.41;100.00
16194;BME280;8204;53.582;10.080;2023-04-01T09:26:42;98740.50;;;10.53;100.00
16194;BME280;8204;53.582;10.080;2023-04-01T09:29:24;98729.63;;;10.56;100.00
16194;BME280;8204;53.582;10.080;2023-04-01T09:32:27;98730.03;;;10.53;100.00
16194;BME280;8204;53.582;10.080;2023-04-01T09:35:16;98836.59;;;10.46;100.00
16194;BME280;8204;53.582;10.080;2023-04-01T09:37:53;98838.19;;;10.47;100.00
16194;BME280;8204;53.582;10.080;2023-04-01T09:40:31;98860.97;;;10.40;100.00
16194;BME280;8204;53.582;10.080;2023-04-01T09:46:15;98835.19;;;10.43;100.00
16194;BME280;8204;53.582;10.080;2023-04-01T09:49:01;98825.31;;;10.45;100.00
16194;BME280;8204;53.582;10.080;2023-04-01T09:51:39;98845.25;;;10.46;100.00
16194;BME280;8204;53.582;10.080;2023-04-01T09:54:24;98878.28;;;10.54;100.00
16194;BME280;8204;53.582;10.080;2023-04-01T10:00:15;98901.63;;;10.62;100.00
16194;BME280;8204;53.582;10.080;2023-04-01T10:06:26;98937.28;;;10.63;100.00
16194;BME280;8204;53.582;10.080;2023-04-01T10:09:27;98951.59;;;10.67;100.00
16194;BME280;8204;53.582;10.080;2023-04-01T10:12:39;98932.22;;;10.74;100.00
16194;BME280;8204;53.582;10.080;2023-04-01T10:15:36;98948.56;;;10.70;100.00
16194;BME280;8204;53.582;10.080;2023-04-01T10:18:31;98917.72;;;10.72;100.00
16194;BME280;8204;53.582;10.080;2023-04-01T10:21:28;98914.28;;;10.78;100.00
16194;BME280;8204;53.582;10.080;2023-04-01T10:27:18;99008.22;;;10.55;100.00
16194;BME280;8204;53.582;10.080;2023-04-01T10:30:04;98965.28;;;10.62;100.00
16194;BME280;8204;53.582;10.080;2023-04-01T10:36:09;99015.66;;;10.71;100.00
16194;BME280;8204;53.582;10.080;2023-04-01T10:39:27;99019.69;;;10.73;100.00
16194;BME280;8204;53.582;10.080;2023-04-01T10:42:33;99037.03;;;10.68;100.00
16194;BME280;8204;53.582;10.080;2023-04-01T10:45:32;99016.06;;;10.68;100.00
16194;BME280;8204;53.582;10.080;2023-04-01T10:48:18;99012.44;;;10.69;100.00
16194;BME280;8204;53.582;10.080;2023-04-01T10:51:12;99013.88;;;10.71;100.00
16194;BME280;8204;53.582;10.080;2023-04-01T10:56:58;99044.47;;;10.58;100.00
16194;BME280;8204;53.582;10.080;2023-04-01T10:59:45;99049.50;;;10.53;100.00
16194;BME280;8204;53.582;10.080;2023-04-01T11:05:48;99054.94;;;10.51;100.00
16194;BME280;8204;53.582;10.080;2023-04-01T11:17:42;99082.56;;;10.67;100.00
16194;BME280;8204;53.582;10.080;2023-04-01T11:20:40;99110.75;;;10.65;100.00
16194;BME280;8204;53.582;10.080;2023-04-01T11:23:26;99131.28;;;10.61;100.00
16194;BME280;8204;53.582;10.080;2023-04-01T11:26:02;99131.47;;;10.53;100.00
16194;BME280;8204;53.582;10.080;2023-04-01T11:28:59;99124.81;;;10.51;100.00
16194;BME280;8204;53.582;10.080;2023-04-01T11:31:39;99150.00;;;10.52;100.00
16194;BME280;8204;53.582;10.080;2023-04-01T11:34:37;99167.13;;;10.48;100.00
16194;BME280;8204;53.582;10.080;2023-04-01T11:37:21;99159.84;;;10.50;100.00
16194;BME280;8204;53.582;10.080;2023-04-01T11:39:59;99161.47;;;10.51;100.00
16194;BME280;8204;53.582;10.080;2023-04-01T11:42:35;99150.63;;;10.54;100.00
16194;BME280;8204;53.582;10.080;2023-04-01T11:45:20;99178.41;;;10.48;100.00
16194;BME280;8204;53.582;10.080;2023-04-01T11:51:04;99151.19;;;10.43;100.00
16194;BME280;8204;53.582;10.080;2023-04-01T11:53:44;99200.03;;;10.23;100.00
16194;BME280;8204;53.582;10.080;2023-04-01T11:56:39;99206.28;;;10.22;100.00
16194;BME280;8204;53.582;10.080;2023-04-01T11:59:44;99208.06;;;10.15;100.00
16194;BME280;8204;53.582;10.080;2023-04-01T12:02:25;99185.94;;;10.24;100.00
16194;BME280;8204;53.582;10.080;2023-04-01T12:05:15;99211.94;;;10.32;100.00
16194;BME280;8204;53.582;10.080;2023-04-01T12:08:03;99230.25;;;10.25;100.00
16194;BME280;8204;53.582;10.080;2023-04-01T12:10:39;99241.16;;;10.29;100.00
16194;BME280;8204;53.582;10.080;2023-04-01T12:13:19;99216.81;;;10.35;100.00
16194;BME280;8204;53.582;10.080;2023-04-01T12:16:04;99205.78;;;10.39;100.00
16194;BME280;8204;53.582;10.080;2023-04-01T12:18:38;99264.13;;;10.33;100.00
16194;BME280;8204;53.582;10.080;2023-04-01T12:21:17;99297.50;;;10.25;100.00
16194;BME280;8204;53.582;10.080;2023-04-01T12:24:25;99315.72;;;10.12;100.00
16194;BME280;8204;53.582;10.080;2023-04-01T12:30:06;99313.63;;;10.01;100.00
16194;BME280;8204;53.582;10.080;2023-04-01T12:32:46;99272.00;;;10.06;100.00
16194;BME280;8204;53.582;10.080;2023-04-01T12:35:21;99286.69;;;10.01;100.00
16194;BME280;8204;53.582;10.080;2023-04-01T12:38:03;99268.75;;;10.04;100.00
16194;BME280;8204;53.582;10.080;2023-04-01T12:44:11;99331.94;;;9.80;100.00
16194;BME280;8204;53.582;10.080;2023-04-01T12:46:54;99316.34;;;9.72;100.00
16194;BME280;8204;53.582;10.080;2023-04-01T12:52:48;99324.84;;;9.74;100.00
16194;BME280;8204;53.582;10.080;2023-04-01T12:55:35;99363.09;;;9.75;100.00
16194;BME280;8204;53.582;10.080;2023-04-01T13:01:19;99332.56;;;9.82;100.00
16194;BME280;8204;53.582;10.080;2023-04-01T13:04:20;99345.66;;;9.82;100.00
16194;BME280;8204;53.582;10.080;2023-04-01T13:07:12;99391.59;;;9.70;100.00
16194;BME280;8204;53.582;10.080;2023-04-01T13:09:53;99379.75;;;9.74;100.00
16194;BME280;8204;53.582;10.080;2023-04-01T13:12:34;99386.50;;;9.62;100.00
16194;BME280;8204;53.582;10.080;2023-04-01T13:15:21;99368.81;;;9.64;100.00
16194;BME280;8204;53.582;10.080;2023-04-01T13:18:01;99371.53;;;9.56;100.00
16194;BME280;8204;53.582;10.080;2023-04-01T13:20:43;99379.00;;;9.59;100.00
16194;BME280;8204;53.582;10.080;2023-04-01T13:23:28;99385.41;;;9.57;100.00
16194;BME280;8204;53.582;10.080;2023-04-01T13:26:10;99397.06;;;9.54;100.00
16194;BME280;8204;53.582;10.080;2023-04-01T13:28:47;99380.28;;;9.49;100.00
16194;BME280;8204;53.582;10.080;2023-04-01T13:31:29;99409.78;;;9.43;100.00
16194;BME280;8204;53.582;10.080;2023-04-01T13:34:16;99388.44;;;9.40;100.00
16194;BME280;8204;53.582;10.080;2023-04-01T13:36:59;99406.13;;;9.38;100.00
16194;BME280;8204;53.582;10.080;2023-04-01T13:39:46;99419.44;;;9.43;100.00
16194;BME280;8204;53.582;10.080;2023-04-01T13:42:24;99433.06;;;9.38;100.00
16194;BME280;8204;53.582;10.080;2023-04-01T13:44:59;99417.19;;;9.40;100.00
16194;BME280;8204;53.582;10.080;2023-04-01T13:47:43;99462.63;;;9.39;100.00
16194;BME280;8204;53.582;10.080;2023-04-01T13:50:37;99482.53;;;9.40;100.00
16194;BME280;8204;53.582;10.080;2023-04-01T13:53:24;99484.53;;;9.38;100.00
16194;BME280;8204;53.582;10.080;2023-04-01T13:56:05;99471.72;;;9.43;100.00
16194;BME280;8204;53.582;10.080;2023-04-01T13:58:52;99485.06;;;9.47;100.00
16194;BME280;8204;53.582;10.080;2023-04-01T14:01:30;99513.09;;;9.39;100.00
16194;BME280;8204;53.582;10.080;2023-04-01T14:04:33;99528.78;;;9.25;100.00
16194;BME280;8204;53.582;10.080;2023-04-01T14:07:17;99524.81;;;9.29;100.00
16194;BME280;8204;53.582;10.080;2023-04-01T14:10:02;99527.09;;;9.32;100.00
16194;BME280;8204;53.582;10.080;2023-04-01T14:12:39;99541.16;;;9.31;100.00
16194;BME280;8204;53.582;10.080;2023-04-01T14:15:28;99555.53;;;9.27;100.00
16194;BME280;8204;53.582;10.080;2023-04-01T14:18:18;99547.19;;;9.31;100.00
16194;BME280;8204;53.582;10.080;2023-04-01T14:20:57;99542.41;;;9.35;100.00
16194;BME280;8204;53.582;10.080;2023-04-01T14:23:48;99546.28;;;9.39;100.00
16194;BME280;8204;53.582;10.080;2023-04-01T14:26:38;99593.88;;;9.34;100.00
16194;BME280;8204;53.582;10.080;2023-04-01T14:29:21;99596.09;;;9.23;100.00
16194;BME280;8204;53.582;10.080;2023-04-01T14:32:02;99600.88;;;9.19;100.00
16194;BME280;8204;53.582;10.080;2023-04-01T14:34:58;99585.00;;;9.21;100.00
16194;BME280;8204;53.582;10.080;2023-04-01T14:40:36;99611.41;;;9.11;100.00
16194;BME280;8204;53.582;10.080;2023-04-01T14:43:29;99604.84;;;9.15;100.00
16194;BME280;8204;53.582;10.080;2023-04-01T14:49:15;99609.06;;;9.16;100.00
16194;BME280;8204;53.582;10.080;2023-04-01T14:51:46;99626.38;;;9.17;100.00
16194;BME280;8204;53.582;10.080;2023-04-01T14:54:18;99644.19;;;9.14;100.00
16194;BME280;8204;53.582;10.080;2023-04-01T14:57:05;99654.19;;;9.10;100.00
16194;BME280;8204;53.582;10.080;2023-04-01T14:59:40;99665.25;;;8.98;100.00
16194;BME280;8204;53.582;10.080;2023-04-01T15:02:18;99663.47;;;8.90;100.00
16194;BME280;8204;53.582;10.080;2023-04-01T15:04:58;99656.75;;;8.96;100.00
16194;BME280;8204;53.582;10.080;2023-04-01T15:07:55;99656.94;;;8.94;100.00
16194;BME280;8204;53.582;10.080;2023-04-01T15:13:54;99684.56;;;8.89;100.00
16194;BME280;8204;53.582;10.080;2023-04-01T15:16:28;99659.09;;;8.91;100.00
16194;BME280;8204;53.582;10.080;2023-04-01T15:19:10;99651.25;;;8.91;100.00
16194;BME280;8204;53.582;10.080;2023-04-01T15:22:20;99628.03;;;8.96;100.00
16194;BME280;8204;53.582;10.080;2023-04-01T15:25:05;99650.88;;;8.94;100.00
16194;BME280;8204;53.582;10.080;2023-04-01T15:27:45;99665.63;;;8.87;100.00
16194;BME280;8204;53.582;10.080;2023-04-01T15:30:28;99646.88;;;8.83;100.00
16194;BME280;8204;53.582;10.080;2023-04-01T15:33:13;99652.66;;;8.79;100.00
16194;BME280;8204;53.582;10.080;2023-04-01T15:35:50;99677.53;;;8.67;100.00
16194;BME280;8204;53.582;10.080;2023-04-01T15:38:31;99656.97;;;8.64;100.00
16194;BME280;8204;53.582;10.080;2023-04-01T15:41:10;99673.66;;;8.55;100.00
16194;BME280;8204;53.582;10.080;2023-04-01T15:43:44;99665.72;;;8.49;100.00
16194;BME280;8204;53.582;10.080;2023-04-01T15:46:24;99645.50;;;8.51;100.00
16194;BME280;8204;53.582;10.080;2023-04-01T15:49:09;99644.94;;;8.55;100.00
16194;BME280;8204;53.582;10.080;2023-04-01T15:52:06;99649.84;;;8.58;100.00
16194;BME280;8204;53.582;10.080;2023-04-01T15:54:53;99661.94;;;8.51;100.00
16194;BME280;8204;53.582;10.080;2023-04-01T15:57:32;99671.13;;;8.47;100.00
16194;BME280;8204;53.582;10.080;2023-04-01T16:00:16;99674.03;;;8.52;100.00
16194;BME280;8204;53.582;10.080;2023-04-01T16:02:57;99665.34;;;8.52;100.00
16194;BME280;8204;53.582;10.080;2023-04-01T16:05:38;99672.03;;;8.54;100.00
16194;BME280;8204;53.582;10.080;2023-04-01T16:08:25;99692.59;;;8.57;100.00
16194;BME280;8204;53.582;10.080;2023-04-01T16:11:06;99716.94;;;8.50;100.00
16194;BME280;8204;53.582;10.080;2023-04-01T16:13:48;99744.53;;;8.44;100.00
16194;BME280;8204;53.582;10.080;2023-04-01T16:16:31;99738.19;;;8.39;100.00
16194;BME280;8204;53.582;10.080;2023-04-01T16:19:27;99751.22;;;8.39;100.00
16194;BME280;8204;53.582;10.080;2023-04-01T16:22:03;99759.59;;;8.34;100.00
16194;BME280;8204;53.582;10.080;2023-04-01T16:24:35;99747.16;;;8.36;100.00
16194;BME280;8204;53.582;10.080;2023-04-01T16:27:13;99758.25;;;8.38;100.00
16194;BME280;8204;53.582;10.080;2023-04-01T16:29:47;99772.66;;;8.34;100.00
16194;BME280;8204;53.582;10.080;2023-04-01T16:32:23;99754.19;;;8.36;100.00
16194;BME280;8204;53.582;10.080;2023-04-01T16:35:13;99787.47;;;8.34;100.00
16194;BME280;8204;53.582;10.080;2023-04-01T16:37:47;99796.16;;;8.26;100.00
16194;BME280;8204;53.582;10.080;2023-04-01T16:40:25;99805.13;;;8.16;100.00
16194;BME280;8204;53.582;10.080;2023-04-01T16:42:57;99802.81;;;8.13;100.00
16194;BME280;8204;53.582;10.080;2023-04-01T16:45:35;99798.91;;;8.09;100.00
16194;BME280;8204;53.582;10.080;2023-04-01T16:48:12;99814.75;;;8.07;100.00
16194;BME280;8204;53.582;10.080;2023-04-01T16:50:52;99819.97;;;7.99;100.00
16194;BME280;8204;53.582;10.080;2023-04-01T16:53:35;99827.78;;;8.07;100.00
16194;BME280;8204;53.582;10.080;2023-04-01T16:56:12;99845.69;;;8.10;100.00
16194;BME280;8204;53.582;10.080;2023-04-01T16:58:54;99847.34;;;8.11;100.00
16194;BME280;8204;53.582;10.080;2023-04-01T17:01:27;99851.28;;;8.15;100.00
16194;BME280;8204;53.582;10.080;2023-04-01T17:03:59;99855.34;;;8.10;100.00
16194;BME280;8204;53.582;10.080;2023-04-01T17:06:41;99865.59;;;8.11;100.00
16194;BME280;8204;53.582;10.080;2023-04-01T17:09:24;99873.78;;;8.16;100.00
16194;BME280;8204;53.582;10.080;2023-04-01T17:11:58;99871.47;;;8.13;100.00
16194;BME280;8204;53.582;10.080;2023-04-01T17:14:41;99887.66;;;8.17;100.00
16194;BME280;8204;53.582;10.080;2023-04-01T17:17:20;99907.53;;;8.10;100.00
16194;BME280;8204;53.582;10.080;2023-04-01T17:22:49;99938.34;;;8.06;100.00
16194;BME280;8204;53.582;10.080;2023-04-01T17:25:32;99949.72;;;7.97;100.00
16194;BME280;8204;53.582;10.080;2023-04-01T17:28:12;99965.38;;;7.97;100.00
16194;BME280;8204;53.582;10.080;2023-04-01T17:30:50;99969.28;;;7.94;100.00
16194;BME280;8204;53.582;10.080;2023-04-01T17:33:33;99985.25;;;7.91;100.00
16194;BME280;8204;53.582;10.080;2023-04-01T17:36:11;99992.75;;;7.86;100.00
16194;BME280;8204;53.582;10.080;2023-04-01T17:39:13;100008.41;;;7.86;100.00
16194;BME280;8204;53.582;10.080;2023-04-01T17:41:49;100026.44;;;7.79;100.00
16194;BME280;8204;53.582;10.080;2023-04-01T17:44:31;100059.38;;;7.72;100.00
16194;BME280;8204;53.582;10.080;2023-04-01T17:47:23;100072.03;;;7.67;100.00
16194;BME280;8204;53.582;10.080;2023-04-01T17:50:05;100067.00;;;7.66;100.00
16194;BME280;8204;53.582;10.080;2023-04-01T17:52:41;100085.56;;;7.63;100.00
16194;BME280;8204;53.582;10.080;2023-04-01T17:55:38;100082.47;;;7.67;100.00
16194;BME280;8204;53.582;10.080;2023-04-01T17:58:19;100110.50;;;7.65;100.00
16194;BME280;8204;53.582;10.080;2023-04-01T18:01:02;100075.16;;;7.63;100.00
16194;BME280;8204;53.582;10.080;2023-04-01T18:03:50;100084.72;;;7.62;100.00
16194;BME280;8204;53.582;10.080;2023-04-01T18:06:30;100101.00;;;7.56;100.00
16194;BME280;8204;53.582;10.080;2023-04-01T18:09:13;100112.09;;;7.58;100.00
16194;BME280;8204;53.582;10.080;2023-04-01T18:11:56;100118.13;;;7.59;100.00
16194;BME280;8204;53.582;10.080;2023-04-01T18:14:54;100147.13;;;7.56;100.00
16194;BME280;8204;53.582;10.080;2023-04-01T18:17:42;100176.75;;;7.55;100.00
16194;BME280;8204;53.582;10.080;2023-04-01T18:20:29;100190.53;;;7.47;100.00
16194;BME280;8204;53.582;10.080;2023-04-01T18:23:03;100186.16;;;7.48;100.00
16194;BME280;8204;53.582;10.080;2023-04-01T18:25:34;100202.41;;;7.42;100.00
16194;BME280;8204;53.582;10.080;2023-04-01T18:28:30;100218.94;;;7.33;100.00
16194;BME280;8204;53.582;10.080;2023-04-01T18:31:07;100232.28;;;7.30;100.00
16194;BME280;8204;53.582;10.080;2023-04-01T18:33:47;100217.63;;;7.29;100.00
16194;BME280;8204;53.582;10.080;2023-04-01T18:36:26;100223.34;;;7.32;100.00
16194;BME280;8204;53.582;10.080;2023-04-01T18:39:04;100233.28;;;7.37;100.00
16194;BME280;8204;53.582;10.080;2023-04-01T18:41:43;100234.13;;;7.37;100.00
16194;BME280;8204;53.582;10.080;2023-04-01T18:44:34;100235.78;;;7.38;100.00
16194;BME280;8204;53.582;10.080;2023-04-01T18:47:15;100206.34;;;7.46;100.00
16194;BME280;8204;53.582;10.080;2023-04-01T18:49:55;100239.41;;;7.45;100.00
16194;BME280;8204;53.582;10.080;2023-04-01T18:52:33;100283.84;;;7.44;100.00
16194;BME280;8204;53.582;10.080;2023-04-01T18:55:29;100279.91;;;7.40;100.00
16194;BME280;8204;53.582;10.080;2023-04-01T18:58:12;100312.47;;;7.36;100.00
16194;BME280;8204;53.582;10.080;2023-04-01T19:01:01;100344.63;;;7.27;100.00
16194;BME280;8204;53.582;10.080;2023-04-01T19:03:34;100380.03;;;7.20;100.00
16194;BME280;8204;53.582;10.080;2023-04-01T19:06:17;100416.31;;;7.04;100.00
16194;BME280;8204;53.582;10.080;2023-04-01T19:08:48;100405.38;;;7.01;100.00
16194;BME280;8204;53.582;10.080;2023-04-01T19:11:23;100415.28;;;6.97;100.00
16194;BME280;8204;53.582;10.080;2023-04-01T19:14:01;100429.78;;;7.00;100.00
16194;BME280;8204;53.582;10.080;2023-04-01T19:16:44;100461.63;;;6.94;100.00
16194;BME280;8204;53.582;10.080;2023-04-01T19:19:29;100473.41;;;6.88;100.00
16194;BME280;8204;53.582;10.080;2023-04-01T19:22:13;100456.69;;;6.91;100.00
16194;BME280;8204;53.582;10.080;2023-04-01T19:25:07;100465.75;;;6.87;100.00
16194;BME280;8204;53.582;10.080;2023-04-01T19:27:42;100429.81;;;6.90;100.00
16194;BME280;8204;53.582;10.080;2023-04-01T19:30:26;100465.19;;;6.93;100.00
16194;BME280;8204;53.582;10.080;2023-04-01T19:33:08;100469.44;;;6.94;100.00
16194;BME280;8204;53.582;10.080;2023-04-01T19:35:48;100461.56;;;7.03;100.00
16194;BME280;8204;53.582;10.080;2023-04-01T19:38:26;100468.13;;;7.07;100.00
16194;BME280;8204;53.582;10.080;2023-04-01T19:41:06;100484.56;;;7.08;100.00
16194;BME280;8204;53.582;10.080;2023-04-01T19:43:50;100493.78;;;7.02;100.00
16194;BME280;8204;53.582;10.080;2023-04-01T19:46:28;100511.06;;;7.03;100.00
16194;BME280;8204;53.582;10.080;2023-04-01T19:49:28;100526.28;;;6.98;100.00
16194;BME280;8204;53.582;10.080;2023-04-01T19:52:05;100554.28;;;6.96;100.00
16194;BME280;8204;53.582;10.080;2023-04-01T19:54:43;100583.59;;;6.89;100.00
16194;BME280;8204;53.582;10.080;2023-04-01T19:57:23;100605.53;;;6.86;100.00
16194;BME280;8204;53.582;10.080;2023-04-01T20:00:00;100623.75;;;6.77;100.00
16194;BME280;8204;53.582;10.080;2023-04-01T20:02:43;100622.97;;;6.76;100.00
16194;BME280;8204;53.582;10.080;2023-04-01T20:05:28;100645.16;;;6.71;100.00
16194;BME280;8204;53.582;10.080;2023-04-01T20:08:03;100649.94;;;6.66;100.00
16194;BME280;8204;53.582;10.080;2023-04-01T20:10:43;100666.22;;;6.58;100.00
16194;BME280;8204;53.582;10.080;2023-04-01T20:13:21;100677.59;;;6.48;100.00
16194;BME280;8204;53.582;10.080;2023-04-01T20:16:00;100686.19;;;6.39;100.00
16194;BME280;8204;53.582;10.080;2023-04-01T20:18:40;100689.63;;;6.40;100.00
16194;BME280;8204;53.582;10.080;2023-04-01T20:21:27;100708.13;;;6.37;100.00
16194;BME280;8204;53.582;10.080;2023-04-01T20:23:59;100713.84;;;6.31;100.00
16194;BME280;8204;53.582;10.080;2023-04-01T20:26:32;100714.81;;;6.30;100.00
16194;BME280;8204;53.582;10.080;2023-04-01T20:32:07;100738.38;;;6.08;100.00
16194;BME280;8204;53.582;10.080;2023-04-01T20:34:50;100725.38;;;6.08;100.00
16194;BME280;8204;53.582;10.080;2023-04-01T20:37:37;100750.41;;;5.99;100.00
16194;BME280;8204;53.582;10.080;2023-04-01T20:40:26;100731.91;;;5.93;100.00
16194;BME280;8204;53.582;10.080;2023-04-01T20:43:14;100746.81;;;5.91;100.00
16194;BME280;8204;53.582;10.080;2023-04-01T20:45:56;100739.81;;;5.91;100.00
16194;BME280;8204;53.582;10.080;2023-04-01T20:48:40;100739.53;;;5.85;100.00
16194;BME280;8204;53.582;10.080;2023-04-01T20:51:22;100740.47;;;5.84;100.00
16194;BME280;8204;53.582;10.080;2023-04-01T20:54:05;100740.47;;;5.84;100.00
16194;BME280;8204;53.582;10.080;2023-04-01T20:56:50;100757.41;;;5.78;100.00
16194;BME280;8204;53.582;10.080;2023-04-01T20:59:45;100742.13;;;5.74;100.00
16194;BME280;8204;53.582;10.080;2023-04-01T21:02:28;100755.53;;;5.70;100.00
16194;BME280;8204;53.582;10.080;2023-04-01T21:05:28;100751.44;;;5.67;100.00
16194;BME280;8204;53.582;10.080;2023-04-01T21:08:02;100758.75;;;5.62;100.00
16194;BME280;8204;53.582;10.080;2023-04-01T21:10:43;100762.31;;;5.61;100.00
16194;BME280;8204;53.582;10.080;2023-04-01T21:13:24;100785.38;;;5.55;100.00
16194;BME280;8204;53.582;10.080;2023-04-01T21:16:08;100772.63;;;5.52;100.00
16194;BME280;8204;53.582;10.080;2023-04-01T21:18:59;100773.72;;;5.49;100.00
16194;BME280;8204;53.582;10.080;2023-04-01T21:24:52;100789.00;;;5.43;100.00
16194;BME280;8204;53.582;10.080;2023-04-01T21:27:37;100798.81;;;5.39;100.00
16194;BME280;8204;53.582;10.080;2023-04-01T21:30:28;100790.69;;;5.33;100.00
16194;BME280;8204;53.582;10.080;2023-04-01T21:33:15;100808.75;;;5.34;100.00
16194;BME280;8204;53.582;10.080;2023-04-01T21:35:55;100803.81;;;5.31;100.00
16194;BME280;8204;53.582;10.080;2023-04-01T21:38:39;100799.81;;;5.27;100.00
16194;BME280;8204;53.582;10.080;2023-04-01T21:41:33;100807.03;;;5.24;100.00
16194;BME280;8204;53.582;10.080;2023-04-01T21:44:24;100805.25;;;5.24;100.00
16194;BME280;8204;53.582;10.080;2023-04-01T21:47:23;100822.13;;;5.19;100.00
16194;BME280;8204;53.582;10.080;2023-04-01T21:50:20;100805.38;;;5.12;100.00
16194;BME280;8204;53.582;10.080;2023-04-01T22:02:22;100788.09;;;5.02;100.00
16194;BME280;8204;53.582;10.080;2023-04-01T22:04:56;100803.69;;;5.02;100.00
16194;BME280;8204;53.582;10.080;2023-04-01T22:07:31;100819.25;;;5.02;100.00
16194;BME280;8204;53.582;10.080;2023-04-01T22:10:10;100828.22;;;4.98;100.00
16194;BME280;8204;53.582;10.080;2023-04-01T22:12:46;100838.59;;;4.98;100.00
16194;BME280;8204;53.582;10.080;2023-04-01T22:15:25;100833.75;;;4.93;100.00
16194;BME280;8204;53.582;10.080;2023-04-01T22:18:05;100850.66;;;4.88;100.00
16194;BME280;8204;53.582;10.080;2023-04-01T22:20:44;100839.56;;;4.86;100.00
16194;BME280;8204;53.582;10.080;2023-04-01T22:23:20;100853.03;;;4.80;100.00
16194;BME280;8204;53.582;10.080;2023-04-01T22:25:57;100843.34;;;4.82;100.00
16194;BME280;8204;53.582;10.080;2023-04-01T22:28:32;100852.91;;;4.81;100.00
16194;BME280;8204;53.582;10.080;2023-04-01T22:31:03;100851.25;;;4.80;100.00
16194;BME280;8204;53.582;10.080;2023-04-01T22:33:42;100857.50;;;4.78;100.00
16194;BME280;8204;53.582;10.080;2023-04-01T22:36:20;100863.75;;;4.75;100.00
16194;BME280;8204;53.582;10.080;2023-04-01T22:39:03;100866.69;;;4.71;100.00
16194;BME280;8204;53.582;10.080;2023-04-01T22:41:44;100879.69;;;4.71;100.00
16194;BME280;8204;53.582;10.080;2023-04-01T22:44:26;100870.81;;;4.73;100.00
16194;BME280;8204;53.582;10.080;2023-04-01T22:47:02;100882.28;;;4.71;100.00
16194;BME280;8204;53.582;10.080;2023-04-01T22:49:41;100888.66;;;4.67;100.00
16194;BME280;8204;53.582;10.080;2023-04-01T22:52:19;100890.78;;;4.62;100.00
16194;BME280;8204;53.582;10.080;2023-04-01T22:54:53;100876.16;;;4.61;100.00
16194;BME280;8204;53.582;10.080;2023-04-01T22:57:36;100882.75;;;4.65;100.00
16194;BME280;8204;53.582;10.080;2023-04-01T23:00:13;100879.69;;;4.60;100.00
16194;BME280;8204;53.582;10.080;2023-04-01T23:02:48;100886.53;;;4.61;100.00
16194;BME280;8204;53.582;10.080;2023-04-01T23:05:23;100893.59;;;4.59;100.00
16194;BME280;8204;53.582;10.080;2023-04-01T23:07:57;100896.31;;;4.57;100.00
16194;BME280;8204;53.582;10.080;2023-04-01T23:10:39;100911.50;;;4.51;100.00